sensor_id;sensor_type;location;lat;lon;timestamp;P1;durP1;ratioP1;P2;durP2;ratioP2
84614;SDS011;74845;51.204;22.580;2024-02-26T00:02:19;10.20;;;9.20;;
84614;SDS011;74845;51.204;22.580;2024-02-26T00:04:46;9.98;;;9.13;;
84614;SDS011;74845;51.204;22.580;2024-02-26T00:07:13;9.13;;;8.32;;
84614;SDS011;74845;51.204;22.580;2024-02-26T00:09:40;10.13;;;9.13;;
84614;SDS011;74845;51.204;22.580;2024-02-26T00:12:07;10.02;;;9.10;;
84614;SDS011;74845;51.204;22.580;2024-02-26T00:14:34;9.32;;;8.43;;
84614;SDS011;74845;51.204;22.580;2024-02-26T00:17:01;9.13;;;8.35;;
84614;SDS011;74845;51.204;22.580;2024-02-26T00:19:29;10.63;;;9.63;;
84614;SDS011;74845;51.204;22.580;2024-02-26T00:21:56;9.77;;;8.88;;
84614;SDS011;74845;51.204;22.580;2024-02-26T00:24:22;9.57;;;8.75;;
84614;SDS011;74845;51.204;22.580;2024-02-26T00:26:49;9.00;;;8.25;;
84614;SDS011;74845;51.204;22.580;2024-02-26T00:29:20;8.00;;;7.43;;
84614;SDS011;74845;51.204;22.580;2024-02-26T00:31:47;9.38;;;8.57;;
84614;SDS011;74845;51.204;22.580;2024-02-26T00:34:14;8.80;;;8.02;;
84614;SDS011;74845;51.204;22.580;2024-02-26T00:36:41;9.80;;;8.85;;
84614;SDS011;74845;51.204;22.580;2024-02-26T00:39:08;9.75;;;8.95;;
84614;SDS011;74845;51.204;22.580;2024-02-26T00:41:38;11.07;;;10.20;;
84614;SDS011;74845;51.204;22.580;2024-02-26T00:44:06;8.65;;;7.72;;
84614;SDS011;74845;51.204;22.580;2024-02-26T00:46:33;12.45;;;9.93;;
84614;SDS011;74845;51.204;22.580;2024-02-26T00:49:00;9.40;;;8.50;;
84614;SDS011;74845;51.204;22.580;2024-02-26T00:51:28;9.85;;;9.00;;
84614;SDS011;74845;51.204;22.580;2024-02-26T00:53:55;10.57;;;9.57;;
84614;SDS011;74845;51.204;22.580;2024-02-26T00:56:22;8.88;;;8.07;;
84614;SDS011;74845;51.204;22.580;2024-02-26T00:58:48;10.40;;;9.18;;
84614;SDS011;74845;51.204;22.580;2024-02-26T01:01:15;9.50;;;8.73;;
84614;SDS011;74845;51.204;22.580;2024-02-26T01:03:42;10.02;;;9.13;;
84614;SDS011;74845;51.204;22.580;2024-02-26T01:06:09;9.43;;;8.27;;
84614;SDS011;74845;51.204;22.580;2024-02-26T01:08:36;10.30;;;9.40;;
84614;SDS011;74845;51.204;22.580;2024-02-26T01:11:04;10.25;;;9.32;;
84614;SDS011;74845;51.204;22.580;2024-02-26T01:13:31;11.55;;;10.43;;
84614;SDS011;74845;51.204;22.580;2024-02-26T01:15:57;9.57;;;8.75;;
84614;SDS011;74845;51.204;22.580;2024-02-26T01:18:24;11.13;;;10.23;;
84614;SDS011;74845;51.204;22.580;2024-02-26T01:20:51;9.48;;;8.57;;
84614;SDS011;74845;51.204;22.580;2024-02-26T01:23:20;11.48;;;10.45;;
84614;SDS011;74845;51.204;22.580;2024-02-26T01:25:47;10.45;;;9.55;;
84614;SDS011;74845;51.204;22.580;2024-02-26T01:28:15;9.20;;;8.40;;
84614;SDS011;74845;51.204;22.580;2024-02-26T01:30:42;10.48;;;9.25;;
84614;SDS011;74845;51.204;22.580;2024-02-26T01:33:09;9.88;;;8.93;;
84614;SDS011;74845;51.204;22.580;2024-02-26T01:35:36;11.07;;;9.98;;
84614;SDS011;74845;51.204;22.580;2024-02-26T01:38:03;10.27;;;9.32;;
84614;SDS011;74845;51.204;22.580;2024-02-26T01:40:30;9.55;;;8.63;;
84614;SDS011;74845;51.204;22.580;2024-02-26T01:42:57;10.82;;;9.25;;
84614;SDS011;74845;51.204;22.580;2024-02-26T01:45:24;8.65;;;7.95;;
84614;SDS011;74845;51.204;22.580;2024-02-26T01:47:51;10.30;;;9.40;;
84614;SDS011;74845;51.204;22.580;2024-02-26T01:50:19;9.15;;;8.25;;
84614;SDS011;74845;51.204;22.580;2024-02-26T01:52:49;9.82;;;8.90;;
84614;SDS011;74845;51.204;22.580;2024-02-26T01:55:20;10.23;;;9.32;;
84614;SDS011;74845;51.204;22.580;2024-02-26T01:57:49;10.23;;;9.30;;
84614;SDS011;74845;51.204;22.580;2024-02-26T02:00:18;8.43;;;7.72;;
84614;SDS011;74845;51.204;22.580;2024-02-26T02:02:46;9.10;;;7.55;;
84614;SDS011;74845;51.204;22.580;2024-02-26T02:05:15;8.60;;;7.90;;
84614;SDS011;74845;51.204;22.580;2024-02-26T02:07:45;8.98;;;8.10;;
84614;SDS011;74845;51.204;22.580;2024-02-26T02:10:15;10.27;;;9.35;;
84614;SDS011;74845;51.204;22.580;2024-02-26T02:12:43;9.35;;;8.52;;
84614;SDS011;74845;51.204;22.580;2024-02-26T02:15:09;9.18;;;8.32;;
84614;SDS011;74845;51.204;22.580;2024-02-26T02:17:37;8.55;;;7.93;;
84614;SDS011;74845;51.204;22.580;2024-02-26T02:20:04;11.63;;;10.63;;
84614;SDS011;74845;51.204;22.580;2024-02-26T02:22:35;10.27;;;9.32;;
84614;SDS011;74845;51.204;22.580;2024-02-26T02:25:01;10.32;;;9.43;;
84614;SDS011;74845;51.204;22.580;2024-02-26T02:27:30;9.57;;;8.77;;
84614;SDS011;74845;51.204;22.580;2024-02-26T02:29:57;9.73;;;8.82;;
84614;SDS011;74845;51.204;22.580;2024-02-26T02:32:24;10.25;;;9.35;;
84614;SDS011;74845;51.204;22.580;2024-02-26T02:34:51;9.20;;;8.30;;
84614;SDS011;74845;51.204;22.580;2024-02-26T02:37:19;8.85;;;8.05;;
84614;SDS011;74845;51.204;22.580;2024-02-26T02:39:45;8.65;;;8.02;;
84614;SDS011;74845;51.204;22.580;2024-02-26T02:42:12;8.95;;;8.13;;
84614;SDS011;74845;51.204;22.580;2024-02-26T02:44:39;9.15;;;8.25;;
84614;SDS011;74845;51.204;22.580;2024-02-26T02:47:06;8.55;;;7.75;;
84614;SDS011;74845;51.204;22.580;2024-02-26T02:49:32;8.43;;;7.32;;
84614;SDS011;74845;51.204;22.580;2024-02-26T02:52:00;10.18;;;8.68;;
84614;SDS011;74845;51.204;22.580;2024-02-26T02:54:27;8.38;;;7.68;;
84614;SDS011;74845;51.204;22.580;2024-02-26T02:56:54;8.48;;;7.72;;
84614;SDS011;74845;51.204;22.580;2024-02-26T02:59:21;8.93;;;8.15;;
84614;SDS011;74845;51.204;22.580;2024-02-26T03:01:48;9.18;;;8.38;;
84614;SDS011;74845;51.204;22.580;2024-02-26T03:04:14;8.65;;;7.95;;
84614;SDS011;74845;51.204;22.580;2024-02-26T03:06:41;8.85;;;8.13;;
84614;SDS011;74845;51.204;22.580;2024-02-26T03:09:08;8.85;;;8.15;;
84614;SDS011;74845;51.204;22.580;2024-02-26T03:11:35;8.63;;;7.95;;
84614;SDS011;74845;51.204;22.580;2024-02-26T03:14:02;9.48;;;8.70;;
84614;SDS011;74845;51.204;22.580;2024-02-26T03:16:29;11.18;;;9.68;;
84614;SDS011;74845;51.204;22.580;2024-02-26T03:18:56;9.90;;;9.10;;
84614;SDS011;74845;51.204;22.580;2024-02-26T03:21:24;10.50;;;9.68;;
84614;SDS011;74845;51.204;22.580;2024-02-26T03:23:51;11.20;;;10.30;;
84614;SDS011;74845;51.204;22.580;2024-02-26T03:26:18;10.88;;;9.52;;
84614;SDS011;74845;51.204;22.580;2024-02-26T03:28:45;11.35;;;10.43;;
84614;SDS011;74845;51.204;22.580;2024-02-26T03:31:12;10.13;;;9.30;;
84614;SDS011;74845;51.204;22.580;2024-02-26T03:33:39;12.60;;;11.50;;
84614;SDS011;74845;51.204;22.580;2024-02-26T03:36:06;11.18;;;10.27;;
84614;SDS011;74845;51.204;22.580;2024-02-26T03:38:34;10.75;;;9.90;;
84614;SDS011;74845;51.204;22.580;2024-02-26T03:41:00;9.82;;;8.98;;
84614;SDS011;74845;51.204;22.580;2024-02-26T03:43:27;9.70;;;8.80;;
84614;SDS011;74845;51.204;22.580;2024-02-26T03:45:54;9.95;;;9.02;;
84614;SDS011;74845;51.204;22.580;2024-02-26T03:48:21;11.18;;;10.27;;
84614;SDS011;74845;51.204;22.580;2024-02-26T03:50:48;11.07;;;10.13;;
84614;SDS011;74845;51.204;22.580;2024-02-26T03:53:14;10.00;;;9.00;;
84614;SDS011;74845;51.204;22.580;2024-02-26T03:55:41;11.35;;;10.38;;
84614;SDS011;74845;51.204;22.580;2024-02-26T03:58:08;11.77;;;10.68;;
84614;SDS011;74845;51.204;22.580;2024-02-26T04:00:36;9.88;;;8.95;;
84614;SDS011;74845;51.204;22.580;2024-02-26T04:03:04;10.60;;;9.60;;
84614;SDS011;74845;51.204;22.580;2024-02-26T04:05:31;11.27;;;10.15;;
84614;SDS011;74845;51.204;22.580;2024-02-26T04:07:57;9.68;;;8.88;;
84614;SDS011;74845;51.204;22.580;2024-02-26T04:10:24;11.63;;;10.55;;
84614;SDS011;74845;51.204;22.580;2024-02-26T04:12:51;11.82;;;10.73;;
84614;SDS011;74845;51.204;22.580;2024-02-26T04:15:18;10.43;;;9.63;;
84614;SDS011;74845;51.204;22.580;2024-02-26T04:17:46;11.52;;;10.45;;
84614;SDS011;74845;51.204;22.580;2024-02-26T04:20:14;9.85;;;8.93;;
84614;SDS011;74845;51.204;22.580;2024-02-26T04:22:44;11.25;;;10.25;;
84614;SDS011;74845;51.204;22.580;2024-02-26T04:25:11;10.60;;;9.73;;
84614;SDS011;74845;51.204;22.580;2024-02-26T04:27:38;11.57;;;10.48;;
84614;SDS011;74845;51.204;22.580;2024-02-26T04:30:06;10.98;;;9.98;;
84614;SDS011;74845;51.204;22.580;2024-02-26T04:32:33;11.65;;;10.65;;
84614;SDS011;74845;51.204;22.580;2024-02-26T04:35:02;11.90;;;10.75;;
84614;SDS011;74845;51.204;22.580;2024-02-26T04:37:29;11.20;;;10.23;;
84614;SDS011;74845;51.204;22.580;2024-02-26T04:40:00;12.93;;;11.63;;
84614;SDS011;74845;51.204;22.580;2024-02-26T04:42:28;10.75;;;9.85;;
84614;SDS011;74845;51.204;22.580;2024-02-26T04:44:55;11.13;;;10.13;;
84614;SDS011;74845;51.204;22.580;2024-02-26T04:47:22;10.18;;;9.38;;
84614;SDS011;74845;51.204;22.580;2024-02-26T04:49:49;11.63;;;10.57;;
84614;SDS011;74845;51.204;22.580;2024-02-26T04:52:18;11.68;;;10.63;;
84614;SDS011;74845;51.204;22.580;2024-02-26T04:54:45;11.52;;;10.50;;
84614;SDS011;74845;51.204;22.580;2024-02-26T04:57:12;10.63;;;9.82;;
84614;SDS011;74845;51.204;22.580;2024-02-26T04:59:39;10.30;;;9.40;;
84614;SDS011;74845;51.204;22.580;2024-02-26T05:02:07;9.68;;;8.73;;
84614;SDS011;74845;51.204;22.580;2024-02-26T05:04:34;9.43;;;8.63;;
84614;SDS011;74845;51.204;22.580;2024-02-26T05:07:01;8.85;;;8.15;;
84614;SDS011;74845;51.204;22.580;2024-02-26T05:09:28;9.85;;;8.23;;
84614;SDS011;74845;51.204;22.580;2024-02-26T05:11:56;10.13;;;9.23;;
84614;SDS011;74845;51.204;22.580;2024-02-26T05:14:22;10.30;;;8.85;;
84614;SDS011;74845;51.204;22.580;2024-02-26T05:16:51;9.65;;;8.85;;
84614;SDS011;74845;51.204;22.580;2024-02-26T05:19:18;11.10;;;8.50;;
84614;SDS011;74845;51.204;22.580;2024-02-26T05:21:45;10.35;;;9.38;;
84614;SDS011;74845;51.204;22.580;2024-02-26T05:24:15;10.10;;;9.30;;
84614;SDS011;74845;51.204;22.580;2024-02-26T05:26:44;8.97;;;7.90;;
84614;SDS011;74845;51.204;22.580;2024-02-26T05:29:15;9.95;;;8.70;;
84614;SDS011;74845;51.204;22.580;2024-02-26T05:31:42;9.98;;;9.15;;
84614;SDS011;74845;51.204;22.580;2024-02-26T05:34:10;11.02;;;10.05;;
84614;SDS011;74845;51.204;22.580;2024-02-26T05:36:37;9.40;;;8.70;;
84614;SDS011;74845;51.204;22.580;2024-02-26T05:39:10;9.38;;;8.60;;
84614;SDS011;74845;51.204;22.580;2024-02-26T05:41:43;9.98;;;9.23;;
84614;SDS011;74845;51.204;22.580;2024-02-26T05:44:11;11.75;;;10.63;;
84614;SDS011;74845;51.204;22.580;2024-02-26T05:46:38;10.35;;;9.55;;
84614;SDS011;74845;51.204;22.580;2024-02-26T05:49:05;10.23;;;9.32;;
84614;SDS011;74845;51.204;22.580;2024-02-26T05:51:33;10.77;;;9.80;;
84614;SDS011;74845;51.204;22.580;2024-02-26T05:54:00;14.70;;;11.60;;
84614;SDS011;74845;51.204;22.580;2024-02-26T05:56:27;11.43;;;10.43;;
84614;SDS011;74845;51.204;22.580;2024-02-26T05:58:54;11.93;;;10.88;;
84614;SDS011;74845;51.204;22.580;2024-02-26T06:01:21;13.27;;;12.18;;
84614;SDS011;74845;51.204;22.580;2024-02-26T06:03:48;12.15;;;11.07;;
84614;SDS011;74845;51.204;22.580;2024-02-26T06:06:15;14.50;;;13.20;;
84614;SDS011;74845;51.204;22.580;2024-02-26T06:08:42;14.60;;;13.25;;
84614;SDS011;74845;51.204;22.580;2024-02-26T06:11:09;15.48;;;13.88;;
84614;SDS011;74845;51.204;22.580;2024-02-26T06:13:36;14.43;;;13.02;;
84614;SDS011;74845;51.204;22.580;2024-02-26T06:16:03;14.90;;;13.50;;
84614;SDS011;74845;51.204;22.580;2024-02-26T06:18:30;16.92;;;15.27;;
84614;SDS011;74845;51.204;22.580;2024-02-26T06:20:57;15.55;;;14.02;;
84614;SDS011;74845;51.204;22.580;2024-02-26T06:23:24;15.98;;;14.30;;
84614;SDS011;74845;51.204;22.580;2024-02-26T06:25:52;16.17;;;14.68;;
84614;SDS011;74845;51.204;22.580;2024-02-26T06:28:18;17.10;;;15.63;;
84614;SDS011;74845;51.204;22.580;2024-02-26T06:30:45;17.45;;;15.85;;
84614;SDS011;74845;51.204;22.580;2024-02-26T06:33:12;15.43;;;14.07;;
84614;SDS011;74845;51.204;22.580;2024-02-26T06:35:41;17.25;;;15.77;;
84614;SDS011;74845;51.204;22.580;2024-02-26T06:38:08;17.63;;;16.02;;
84614;SDS011;74845;51.204;22.580;2024-02-26T06:40:36;15.35;;;13.90;;
84614;SDS011;74845;51.204;22.580;2024-02-26T06:43:02;16.45;;;15.00;;
84614;SDS011;74845;51.204;22.580;2024-02-26T06:45:30;17.67;;;16.00;;
84614;SDS011;74845;51.204;22.580;2024-02-26T06:47:57;16.10;;;14.65;;
84614;SDS011;74845;51.204;22.580;2024-02-26T06:50:24;16.85;;;15.25;;
84614;SDS011;74845;51.204;22.580;2024-02-26T06:52:51;16.85;;;15.27;;
84614;SDS011;74845;51.204;22.580;2024-02-26T06:55:17;15.90;;;14.45;;
84614;SDS011;74845;51.204;22.580;2024-02-26T06:57:44;16.88;;;15.27;;
84614;SDS011;74845;51.204;22.580;2024-02-26T07:00:11;14.88;;;13.73;;
84614;SDS011;74845;51.204;22.580;2024-02-26T07:02:42;16.45;;;14.93;;
84614;SDS011;74845;51.204;22.580;2024-02-26T07:05:09;16.60;;;14.88;;
84614;SDS011;74845;51.204;22.580;2024-02-26T07:07:36;17.02;;;15.52;;
84614;SDS011;74845;51.204;22.580;2024-02-26T07:10:03;15.95;;;14.50;;
84614;SDS011;74845;51.204;22.580;2024-02-26T07:12:32;18.70;;;16.90;;
84614;SDS011;74845;51.204;22.580;2024-02-26T07:14:59;19.55;;;17.63;;
84614;SDS011;74845;51.204;22.580;2024-02-26T07:17:27;19.02;;;17.08;;
84614;SDS011;74845;51.204;22.580;2024-02-26T07:19:54;19.67;;;17.60;;
84614;SDS011;74845;51.204;22.580;2024-02-26T07:22:24;19.73;;;17.77;;
84614;SDS011;74845;51.204;22.580;2024-02-26T07:27:21;17.40;;;15.48;;
84614;SDS011;74845;51.204;22.580;2024-02-26T07:29:48;20.80;;;18.67;;
84614;SDS011;74845;51.204;22.580;2024-02-26T07:32:15;19.20;;;17.30;;
84614;SDS011;74845;51.204;22.580;2024-02-26T07:34:42;21.48;;;19.15;;
84614;SDS011;74845;51.204;22.580;2024-02-26T07:37:11;19.88;;;17.98;;
84614;SDS011;74845;51.204;22.580;2024-02-26T07:39:38;21.77;;;19.65;;
84614;SDS011;74845;51.204;22.580;2024-02-26T07:42:05;19.13;;;17.23;;
84614;SDS011;74845;51.204;22.580;2024-02-26T07:44:33;20.65;;;18.52;;
84614;SDS011;74845;51.204;22.580;2024-02-26T07:46:59;19.17;;;17.42;;
84614;SDS011;74845;51.204;22.580;2024-02-26T07:49:26;19.38;;;17.15;;
84614;SDS011;74845;51.204;22.580;2024-02-26T07:51:53;17.65;;;15.82;;
84614;SDS011;74845;51.204;22.580;2024-02-26T07:54:21;17.05;;;15.43;;
84614;SDS011;74845;51.204;22.580;2024-02-26T07:56:48;17.95;;;16.15;;
84614;SDS011;74845;51.204;22.580;2024-02-26T07:59:15;18.85;;;17.05;;
84614;SDS011;74845;51.204;22.580;2024-02-26T08:01:41;19.30;;;17.48;;
84614;SDS011;74845;51.204;22.580;2024-02-26T08:04:09;17.38;;;15.65;;
84614;SDS011;74845;51.204;22.580;2024-02-26T08:06:36;17.35;;;15.23;;
84614;SDS011;74845;51.204;22.580;2024-02-26T08:09:04;16.80;;;15.15;;
84614;SDS011;74845;51.204;22.580;2024-02-26T08:14:31;14.57;;;13.20;;
84614;SDS011;74845;51.204;22.580;2024-02-26T08:17:01;17.13;;;15.20;;
84614;SDS011;74845;51.204;22.580;2024-02-26T08:19:28;17.13;;;15.48;;
84614;SDS011;74845;51.204;22.580;2024-02-26T08:21:55;16.33;;;14.80;;
84614;SDS011;74845;51.204;22.580;2024-02-26T08:24:22;17.15;;;15.52;;
84614;SDS011;74845;51.204;22.580;2024-02-26T08:26:49;17.23;;;15.50;;
84614;SDS011;74845;51.204;22.580;2024-02-26T08:29:16;18.67;;;16.83;;
84614;SDS011;74845;51.204;22.580;2024-02-26T08:31:43;18.48;;;16.77;;
84614;SDS011;74845;51.204;22.580;2024-02-26T08:34:10;17.40;;;15.90;;
84614;SDS011;74845;51.204;22.580;2024-02-26T08:36:37;20.95;;;18.95;;
84614;SDS011;74845;51.204;22.580;2024-02-26T08:39:04;18.85;;;16.13;;
84614;SDS011;74845;51.204;22.580;2024-02-26T08:41:31;21.25;;;19.08;;
84614;SDS011;74845;51.204;22.580;2024-02-26T08:43:58;20.42;;;18.35;;
84614;SDS011;74845;51.204;22.580;2024-02-26T08:46:25;21.10;;;19.05;;
84614;SDS011;74845;51.204;22.580;2024-02-26T08:48:51;21.73;;;19.42;;
84614;SDS011;74845;51.204;22.580;2024-02-26T08:51:19;19.60;;;17.70;;
84614;SDS011;74845;51.204;22.580;2024-02-26T08:53:46;20.08;;;18.02;;
84614;SDS011;74845;51.204;22.580;2024-02-26T08:56:13;19.45;;;17.35;;
84614;SDS011;74845;51.204;22.580;2024-02-26T08:58:44;19.08;;;17.08;;
84614;SDS011;74845;51.204;22.580;2024-02-26T09:01:15;17.83;;;16.10;;
84614;SDS011;74845;51.204;22.580;2024-02-26T09:03:42;18.35;;;16.25;;
84614;SDS011;74845;51.204;22.580;2024-02-26T09:06:09;17.10;;;15.38;;
84614;SDS011;74845;51.204;22.580;2024-02-26T09:08:36;16.10;;;14.50;;
84614;SDS011;74845;51.204;22.580;2024-02-26T09:11:03;17.40;;;15.68;;
84614;SDS011;74845;51.204;22.580;2024-02-26T09:13:31;17.80;;;15.98;;
84614;SDS011;74845;51.204;22.580;2024-02-26T09:15:57;19.33;;;17.33;;
84614;SDS011;74845;51.204;22.580;2024-02-26T09:18:26;18.60;;;16.88;;
84614;SDS011;74845;51.204;22.580;2024-02-26T09:20:53;18.38;;;16.70;;
84614;SDS011;74845;51.204;22.580;2024-02-26T09:23:19;19.15;;;17.20;;
84614;SDS011;74845;51.204;22.580;2024-02-26T09:25:46;14.73;;;13.32;;
84614;SDS011;74845;51.204;22.580;2024-02-26T09:28:13;16.02;;;14.45;;
84614;SDS011;74845;51.204;22.580;2024-02-26T09:30:43;18.02;;;16.33;;
84614;SDS011;74845;51.204;22.580;2024-02-26T09:33:10;16.30;;;14.70;;
84614;SDS011;74845;51.204;22.580;2024-02-26T09:35:38;13.95;;;12.75;;
84614;SDS011;74845;51.204;22.580;2024-02-26T09:38:05;16.73;;;15.10;;
84614;SDS011;74845;51.204;22.580;2024-02-26T09:40:34;15.13;;;13.70;;
84614;SDS011;74845;51.204;22.580;2024-02-26T09:43:01;14.50;;;13.20;;
84614;SDS011;74845;51.204;22.580;2024-02-26T09:45:31;16.70;;;15.20;;
84614;SDS011;74845;51.204;22.580;2024-02-26T09:47:59;16.17;;;14.48;;
84614;SDS011;74845;51.204;22.580;2024-02-26T09:50:28;16.38;;;14.38;;
84614;SDS011;74845;51.204;22.580;2024-02-26T09:52:55;16.70;;;15.00;;
84614;SDS011;74845;51.204;22.580;2024-02-26T09:55:25;17.98;;;16.23;;
84614;SDS011;74845;51.204;22.580;2024-02-26T09:57:52;16.02;;;14.27;;
84614;SDS011;74845;51.204;22.580;2024-02-26T10:00:20;18.13;;;16.30;;
84614;SDS011;74845;51.204;22.580;2024-02-26T10:02:48;19.30;;;17.50;;
84614;SDS011;74845;51.204;22.580;2024-02-26T10:05:18;18.83;;;16.83;;
84614;SDS011;74845;51.204;22.580;2024-02-26T10:07:46;15.55;;;13.95;;
84614;SDS011;74845;51.204;22.580;2024-02-26T10:10:13;17.33;;;15.63;;
84614;SDS011;74845;51.204;22.580;2024-02-26T10:12:41;17.67;;;16.10;;
84614;SDS011;74845;51.204;22.580;2024-02-26T10:15:08;17.38;;;15.40;;
84614;SDS011;74845;51.204;22.580;2024-02-26T10:17:35;17.30;;;15.77;;
84614;SDS011;74845;51.204;22.580;2024-02-26T10:20:13;18.35;;;16.55;;
84614;SDS011;74845;51.204;22.580;2024-02-26T10:22:42;15.57;;;14.10;;
84614;SDS011;74845;51.204;22.580;2024-02-26T10:25:10;17.65;;;15.95;;
84614;SDS011;74845;51.204;22.580;2024-02-26T10:27:37;16.73;;;14.95;;
84614;SDS011;74845;51.204;22.580;2024-02-26T10:30:04;20.67;;;15.00;;
84614;SDS011;74845;51.204;22.580;2024-02-26T10:32:46;19.65;;;16.33;;
84614;SDS011;74845;51.204;22.580;2024-02-26T10:35:18;16.13;;;14.63;;
84614;SDS011;74845;51.204;22.580;2024-02-26T10:37:47;17.00;;;15.52;;
84614;SDS011;74845;51.204;22.580;2024-02-26T10:40:15;16.80;;;15.18;;
84614;SDS011;74845;51.204;22.580;2024-02-26T10:42:43;14.90;;;13.50;;
84614;SDS011;74845;51.204;22.580;2024-02-26T10:45:12;16.95;;;15.25;;
84614;SDS011;74845;51.204;22.580;2024-02-26T10:47:39;15.77;;;14.38;;
84614;SDS011;74845;51.204;22.580;2024-02-26T10:52:35;13.90;;;12.60;;
84614;SDS011;74845;51.204;22.580;2024-02-26T10:55:04;13.82;;;12.52;;
84614;SDS011;74845;51.204;22.580;2024-02-26T10:57:40;14.68;;;13.32;;
84614;SDS011;74845;51.204;22.580;2024-02-26T11:00:09;15.75;;;12.98;;
84614;SDS011;74845;51.204;22.580;2024-02-26T11:02:40;12.25;;;11.15;;
84614;SDS011;74845;51.204;22.580;2024-02-26T11:05:07;12.90;;;11.80;;
84614;SDS011;74845;51.204;22.580;2024-02-26T11:07:35;13.13;;;11.93;;
84614;SDS011;74845;51.204;22.580;2024-02-26T11:10:05;12.82;;;11.55;;
84614;SDS011;74845;51.204;22.580;2024-02-26T11:12:32;11.73;;;10.63;;
84614;SDS011;74845;51.204;22.580;2024-02-26T11:15:04;11.00;;;10.00;;
84614;SDS011;74845;51.204;22.580;2024-02-26T11:17:32;10.88;;;9.77;;
84614;SDS011;74845;51.204;22.580;2024-02-26T11:20:00;10.35;;;9.30;;
84614;SDS011;74845;51.204;22.580;2024-02-26T11:22:30;9.85;;;8.95;;
84614;SDS011;74845;51.204;22.580;2024-02-26T11:24:58;10.35;;;9.48;;
84614;SDS011;74845;51.204;22.580;2024-02-26T11:27:28;10.00;;;8.95;;
84614;SDS011;74845;51.204;22.580;2024-02-26T11:29:59;9.93;;;9.13;;
84614;SDS011;74845;51.204;22.580;2024-02-26T11:32:28;10.85;;;8.77;;
84614;SDS011;74845;51.204;22.580;2024-02-26T11:34:57;11.53;;;8.87;;
84614;SDS011;74845;51.204;22.580;2024-02-26T11:37:25;9.25;;;8.32;;
84614;SDS011;74845;51.204;22.580;2024-02-26T11:39:52;9.55;;;8.80;;
84614;SDS011;74845;51.204;22.580;2024-02-26T11:42:22;9.50;;;8.70;;
84614;SDS011;74845;51.204;22.580;2024-02-26T11:44:52;7.82;;;7.13;;
84614;SDS011;74845;51.204;22.580;2024-02-26T11:47:19;9.65;;;8.68;;
84614;SDS011;74845;51.204;22.580;2024-02-26T11:49:48;8.10;;;7.50;;
84614;SDS011;74845;51.204;22.580;2024-02-26T11:52:15;8.27;;;7.55;;
84614;SDS011;74845;51.204;22.580;2024-02-26T11:54:49;9.25;;;8.20;;
84614;SDS011;74845;51.204;22.580;2024-02-26T11:57:27;8.63;;;7.93;;
84614;SDS011;74845;51.204;22.580;2024-02-26T11:59:56;9.55;;;7.60;;
84614;SDS011;74845;51.204;22.580;2024-02-26T12:02:52;9.10;;;8.20;;
84614;SDS011;74845;51.204;22.580;2024-02-26T12:05:32;11.75;;;8.23;;
84614;SDS011;74845;51.204;22.580;2024-02-26T12:08:03;8.70;;;8.00;;
84614;SDS011;74845;51.204;22.580;2024-02-26T12:10:41;8.27;;;7.47;;
84614;SDS011;74845;51.204;22.580;2024-02-26T12:13:11;7.85;;;7.15;;
84614;SDS011;74845;51.204;22.580;2024-02-26T12:16:07;8.93;;;8.10;;
84614;SDS011;74845;51.204;22.580;2024-02-26T12:18:32;9.13;;;8.20;;
84614;SDS011;74845;51.204;22.580;2024-02-26T12:21:02;7.55;;;6.95;;
84614;SDS011;74845;51.204;22.580;2024-02-26T12:23:30;8.63;;;7.85;;
84614;SDS011;74845;51.204;22.580;2024-02-26T12:26:00;8.25;;;7.55;;
84614;SDS011;74845;51.204;22.580;2024-02-26T12:28:33;8.45;;;7.80;;
84614;SDS011;74845;51.204;22.580;2024-02-26T12:30:59;8.63;;;7.82;;
84614;SDS011;74845;51.204;22.580;2024-02-26T12:33:27;9.07;;;7.70;;
84614;SDS011;74845;51.204;22.580;2024-02-26T12:35:55;9.75;;;8.75;;
84614;SDS011;74845;51.204;22.580;2024-02-26T12:38:23;12.07;;;9.82;;
84614;SDS011;74845;51.204;22.580;2024-02-26T12:40:50;9.30;;;8.60;;
84614;SDS011;74845;51.204;22.580;2024-02-26T12:43:17;9.07;;;8.13;;
84614;SDS011;74845;51.204;22.580;2024-02-26T12:45:44;9.98;;;9.07;;
84614;SDS011;74845;51.204;22.580;2024-02-26T12:48:14;9.48;;;7.28;;
84614;SDS011;74845;51.204;22.580;2024-02-26T12:50:44;8.57;;;7.95;;
84614;SDS011;74845;51.204;22.580;2024-02-26T12:53:12;9.57;;;8.75;;
84614;SDS011;74845;51.204;22.580;2024-02-26T12:55:38;9.48;;;8.63;;
84614;SDS011;74845;51.204;22.580;2024-02-26T12:58:06;9.70;;;8.73;;
84614;SDS011;74845;51.204;22.580;2024-02-26T13:00:34;8.30;;;7.50;;
84614;SDS011;74845;51.204;22.580;2024-02-26T13:03:01;9.70;;;8.75;;
84614;SDS011;74845;51.204;22.580;2024-02-26T13:05:28;9.30;;;8.13;;
84614;SDS011;74845;51.204;22.580;2024-02-26T13:07:56;9.77;;;9.05;;
84614;SDS011;74845;51.204;22.580;2024-02-26T13:10:23;12.38;;;8.50;;
84614;SDS011;74845;51.204;22.580;2024-02-26T13:12:52;9.10;;;8.25;;
84614;SDS011;74845;51.204;22.580;2024-02-26T13:15:20;8.40;;;7.55;;
84614;SDS011;74845;51.204;22.580;2024-02-26T13:17:48;9.17;;;8.33;;
84614;SDS011;74845;51.204;22.580;2024-02-26T13:20:29;12.38;;;8.63;;
84614;SDS011;74845;51.204;22.580;2024-02-26T13:23:04;10.07;;;9.02;;
84614;SDS011;74845;51.204;22.580;2024-02-26T13:25:35;9.27;;;8.38;;
84614;SDS011;74845;51.204;22.580;2024-02-26T13:28:09;8.73;;;7.90;;
84614;SDS011;74845;51.204;22.580;2024-02-26T13:30:51;8.80;;;7.90;;
84614;SDS011;74845;51.204;22.580;2024-02-26T13:33:18;9.18;;;8.30;;
84614;SDS011;74845;51.204;22.580;2024-02-26T13:35:46;8.35;;;7.55;;
84614;SDS011;74845;51.204;22.580;2024-02-26T13:38:13;10.48;;;8.45;;
84614;SDS011;74845;51.204;22.580;2024-02-26T13:40:40;10.18;;;8.70;;
84614;SDS011;74845;51.204;22.580;2024-02-26T13:43:07;11.57;;;7.43;;
84614;SDS011;74845;51.204;22.580;2024-02-26T13:45:34;7.80;;;7.20;;
84614;SDS011;74845;51.204;22.580;2024-02-26T13:48:05;9.23;;;8.52;;
84614;SDS011;74845;51.204;22.580;2024-02-26T13:50:34;7.20;;;6.60;;
84614;SDS011;74845;51.204;22.580;2024-02-26T13:53:01;8.00;;;7.13;;
84614;SDS011;74845;51.204;22.580;2024-02-26T13:55:29;9.77;;;8.77;;
84614;SDS011;74845;51.204;22.580;2024-02-26T13:57:58;9.55;;;8.65;;
84614;SDS011;74845;51.204;22.580;2024-02-26T14:02:55;8.73;;;7.93;;
84614;SDS011;74845;51.204;22.580;2024-02-26T14:05:22;9.65;;;8.45;;
84614;SDS011;74845;51.204;22.580;2024-02-26T14:07:49;10.38;;;9.27;;
84614;SDS011;74845;51.204;22.580;2024-02-26T14:10:18;9.25;;;7.97;;
84614;SDS011;74845;51.204;22.580;2024-02-26T14:12:45;10.00;;;8.98;;
84614;SDS011;74845;51.204;22.580;2024-02-26T14:15:12;9.15;;;8.18;;
84614;SDS011;74845;51.204;22.580;2024-02-26T14:17:39;10.45;;;8.25;;
84614;SDS011;74845;51.204;22.580;2024-02-26T14:20:06;9.02;;;7.70;;
84614;SDS011;74845;51.204;22.580;2024-02-26T14:22:35;9.45;;;8.55;;
84614;SDS011;74845;51.204;22.580;2024-02-26T14:25:02;12.23;;;8.15;;
84614;SDS011;74845;51.204;22.580;2024-02-26T14:27:29;23.02;;;15.93;;
84614;SDS011;74845;51.204;22.580;2024-02-26T14:29:56;16.10;;;13.70;;
84614;SDS011;74845;51.204;22.580;2024-02-26T14:32:23;12.80;;;10.35;;
84614;SDS011;74845;51.204;22.580;2024-02-26T14:34:49;10.57;;;9.52;;
84614;SDS011;74845;51.204;22.580;2024-02-26T14:37:16;21.38;;;16.05;;